Time;durP1;ratioP1;P1;durP2;ratioP2;P2;SDS_P1;SDS_P2;PMS_P1;PMS_P2;Temp;Humidity;BMP_temperature;BMP_pressure;BME280_temperature;BME280_humidity;BME280_pressure;Samples;Min_cycle;Max_cycle;Signal;HPM_P1;HPM_P2
2021/04/14 00:01:17;;;;;;;0.70;0.50;;;;;;;;;;5016415;28;20295;-48
2021/04/14 00:03:45;;;;;;;0.80;0.80;;;;;;;;;;5014336;28;20231;-48
2021/04/14 00:06:11;;;;;;;0.65;0.65;;;;;;;;;;4997137;28;20451;-48
2021/04/14 00:08:37;;;;;;;1.20;0.70;;;;;;;;;;5014277;28;20187;-48
2021/04/14 00:11:05;;;;;;;0.85;0.60;;;;;;;;;;5014561;28;20177;-48
2021/04/14 00:13:34;;;;;;;0.90;0.90;;;;;;;;;;5003508;28;20208;-48
2021/04/14 00:16:00;;;;;;;0.60;0.60;;;;;;;;;;5016069;28;20172;-48
2021/04/14 00:18:27;;;;;;;0.93;0.60;;;;;;;;;;5016092;28;20204;-49
2021/04/14 00:20:53;;;;;;;0.80;0.65;;;;;;;;;;5016015;28;20173;-48
2021/04/14 00:23:21;;;;;;;0.73;0.50;;;;;;;;;;5015614;28;20194;-48
2021/04/14 00:25:48;;;;;;;0.70;0.70;;;;;;;;;;5015739;28;20181;-49
2021/04/14 00:28:16;;;;;;;0.43;0.43;;;;;;;;;;5015368;28;20218;-49
2021/04/14 00:30:43;;;;;;;0.65;0.60;;;;;;;;;;5015457;28;20197;-48
2021/04/14 00:33:09;;;;;;;0.60;0.60;;;;;;;;;;5008572;28;20184;-49
2021/04/14 00:35:35;;;;;;;1.00;0.70;;;;;;;;;;5016244;28;20528;-48
2021/04/14 00:38:01;;;;;;;1.05;0.60;;;;;;;;;;5015745;28;20200;-49
2021/04/14 00:40:31;;;;;;;0.88;0.80;;;;;;;;;;5015134;28;20252;-49
2021/04/14 00:42:58;;;;;;;0.50;0.50;;;;;;;;;;5015317;28;20463;-48
2021/04/14 00:45:24;;;;;;;0.88;0.70;;;;;;;;;;5015962;28;20177;-48
2021/04/14 00:47:50;;;;;;;0.55;0.55;;;;;;;;;;5015420;28;20494;-48
2021/04/14 00:50:18;;;;;;;1.02;0.70;;;;;;;;;;5015807;28;20189;-48
2021/04/14 00:52:44;;;;;;;0.73;0.63;;;;;;;;;;5011321;28;20244;-48
2021/04/14 00:55:12;;;;;;;0.85;0.60;;;;;;;;;;5015261;28;20199;-49
2021/04/14 00:57:38;;;;;;;0.70;0.60;;;;;;;;;;5015619;28;20200;-49
2021/04/14 01:00:07;;;;;;;0.85;0.70;;;;;;;;;;5015755;28;20262;-49
2021/04/14 01:02:32;;;;;;;0.65;0.65;;;;;;;;;;5013311;28;20204;-48
2021/04/14 01:04:59;;;;;;;0.98;0.85;;;;;;;;;;5015439;28;20191;-48
2021/04/14 01:07:25;;;;;;;0.80;0.80;;;;;;;;;;5015719;28;20173;-49
2021/04/14 01:09:51;;;;;;;0.75;0.60;;;;;;;;;;5014630;28;20502;-48
2021/04/14 01:12:17;;;;;;;1.85;0.90;;;;;;;;;;5003759;28;20264;-49
2021/04/14 01:14:43;;;;;;;0.82;0.70;;;;;;;;;;5015040;28;20259;-50
2021/04/14 01:17:09;;;;;;;1.08;0.90;;;;;;;;;;5015382;28;20503;-48
2021/04/14 01:19:35;;;;;;;0.60;0.60;;;;;;;;;;5015358;28;20207;-48
2021/04/14 01:22:01;;;;;;;0.70;0.60;;;;;;;;;;5014071;28;20216;-48
2021/04/14 01:24:27;;;;;;;0.77;0.73;;;;;;;;;;5014812;28;20649;-49
2021/04/14 01:26:53;;;;;;;0.60;0.60;;;;;;;;;;5015178;28;20218;-49
2021/04/14 01:29:19;;;;;;;0.70;0.70;;;;;;;;;;5015287;28;20196;-48
2021/04/14 01:31:45;;;;;;;0.73;0.70;;;;;;;;;;5006911;28;20238;-48
2021/04/14 01:34:12;;;;;;;1.15;0.63;;;;;;;;;;4989632;28;20218;-48
2021/04/14 01:36:38;;;;;;;0.80;0.80;;;;;;;;;;5014901;28;20204;-49
2021/04/14 01:39:08;;;;;;;0.75;0.75;;;;;;;;;;5014881;28;20603;-48
2021/04/14 01:41:34;;;;;;;1.02;0.80;;;;;;;;;;5014186;28;20556;-49
2021/04/14 01:44:00;;;;;;;0.80;0.75;;;;;;;;;;4997315;28;20275;-49
2021/04/14 01:46:26;;;;;;;1.33;1.00;;;;;;;;;;5015159;28;20243;-49
2021/04/14 01:48:52;;;;;;;0.88;0.77;;;;;;;;;;5015004;28;20267;-48
2021/04/14 01:51:18;;;;;;;1.05;0.95;;;;;;;;;;5011046;28;20559;-48
2021/04/14 01:53:46;;;;;;;0.52;0.52;;;;;;;;;;5007295;28;20181;-49
2021/04/14 01:56:12;;;;;;;0.73;0.70;;;;;;;;;;5015972;28;20172;-48
2021/04/14 01:58:38;;;;;;;0.65;0.63;;;;;;;;;;5017191;28;20294;-48
2021/04/14 02:01:06;;;;;;;0.65;0.60;;;;;;;;;;5013078;28;20290;-49
2021/04/14 02:03:33;;;;;;;0.77;0.60;;;;;;;;;;5014713;28;20176;-48
2021/04/14 02:05:59;;;;;;;1.23;0.90;;;;;;;;;;5014794;28;20227;-49
2021/04/14 02:08:25;;;;;;;1.08;0.70;;;;;;;;;;5013845;28;20555;-48
2021/04/14 02:10:52;;;;;;;1.02;0.75;;;;;;;;;;5015083;28;20184;-49
2021/04/14 02:13:23;;;;;;;0.60;0.60;;;;;;;;;;5032125;28;20167;-48
2021/04/14 02:15:50;;;;;;;0.70;0.70;;;;;;;;;;5010216;28;20191;-48
2021/04/14 02:18:16;;;;;;;0.60;0.60;;;;;;;;;;5014584;28;20232;-48
2021/04/14 02:20:42;;;;;;;1.15;0.70;;;;;;;;;;5013873;28;20181;-48
2021/04/14 02:23:22;;;;;;;0.70;0.70;;;;;;;;;;5007541;28;20215;-48
2021/04/14 02:25:48;;;;;;;0.70;0.70;;;;;;;;;;5014060;28;20204;-48
2021/04/14 02:28:14;;;;;;;0.98;0.70;;;;;;;;;;4997627;28;20275;-48
2021/04/14 02:30:40;;;;;;;1.00;0.90;;;;;;;;;;5010212;28;20193;-49
2021/04/14 02:33:07;;;;;;;0.80;0.70;;;;;;;;;;5005614;28;20184;-48
2021/04/14 02:35:34;;;;;;;0.73;0.60;;;;;;;;;;5014659;28;20180;-48
2021/04/14 02:38:00;;;;;;;0.80;0.80;;;;;;;;;;5014357;28;20552;-49
2021/04/14 02:40:26;;;;;;;0.73;0.73;;;;;;;;;;5011916;28;20590;-48
2021/04/14 02:42:53;;;;;;;0.68;0.68;;;;;;;;;;5031816;28;20187;-48
2021/04/14 02:45:20;;;;;;;0.95;0.80;;;;;;;;;;5020668;28;20219;-48
2021/04/14 02:47:46;;;;;;;1.52;0.80;;;;;;;;;;5014504;28;20180;-49
2021/04/14 02:50:13;;;;;;;0.98;0.90;;;;;;;;;;5014061;28;20212;-48
2021/04/14 02:52:39;;;;;;;0.75;0.75;;;;;;;;;;5013223;28;20180;-48
2021/04/14 02:55:06;;;;;;;0.93;0.70;;;;;;;;;;5013832;28;20259;-48
2021/04/14 02:57:32;;;;;;;0.60;0.60;;;;;;;;;;5014351;28;20208;-49
2021/04/14 02:59:58;;;;;;;1.60;0.70;;;;;;;;;;5013745;28;20175;-48
2021/04/14 03:02:24;;;;;;;0.60;0.60;;;;;;;;;;5012210;28;20200;-48
2021/04/14 03:04:50;;;;;;;0.88;0.85;;;;;;;;;;5013919;28;20598;-48
2021/04/14 03:07:16;;;;;;;0.70;0.70;;;;;;;;;;5014181;28;20180;-49
2021/04/14 03:09:42;;;;;;;1.13;0.70;;;;;;;;;;5010168;28;20184;-48
2021/04/14 03:12:08;;;;;;;0.65;0.60;;;;;;;;;;5026953;28;20217;-48
2021/04/14 03:14:35;;;;;;;1.17;0.82;;;;;;;;;;5022070;28;20192;-48
2021/04/14 03:17:01;;;;;;;1.17;1.08;;;;;;;;;;5017927;28;20188;-48
2021/04/14 03:19:27;;;;;;;1.00;0.70;;;;;;;;;;5016903;28;20203;-48
2021/04/14 03:21:53;;;;;;;0.93;0.70;;;;;;;;;;5017152;28;20239;-48
2021/04/14 03:24:20;;;;;;;0.80;0.75;;;;;;;;;;5016842;28;20180;-48
2021/04/14 03:26:46;;;;;;;0.73;0.73;;;;;;;;;;5017447;28;20208;-48
2021/04/14 03:29:12;;;;;;;1.13;0.68;;;;;;;;;;5014104;28;20243;-48
2021/04/14 03:31:38;;;;;;;0.60;0.60;;;;;;;;;;5016598;28;20204;-48
2021/04/14 03:34:04;;;;;;;0.70;0.70;;;;;;;;;;5016081;28;20176;-48
2021/04/14 03:36:30;;;;;;;0.60;0.60;;;;;;;;;;5016451;28;20479;-48
2021/04/14 03:38:56;;;;;;;0.90;0.80;;;;;;;;;;5016702;28;20180;-48
2021/04/14 03:41:22;;;;;;;1.10;0.98;;;;;;;;;;5016724;28;20184;-48
2021/04/14 03:43:50;;;;;;;2.67;0.85;;;;;;;;;;5016921;28;20173;-49
2021/04/14 03:46:17;;;;;;;1.20;0.70;;;;;;;;;;5002094;28;20235;-48
2021/04/14 03:48:43;;;;;;;0.63;0.63;;;;;;;;;;5016676;28;20180;-48
2021/04/14 03:51:09;;;;;;;0.70;0.70;;;;;;;;;;5016403;28;20247;-49
2021/04/14 03:53:38;;;;;;;1.05;0.77;;;;;;;;;;5016368;28;20259;-48
2021/04/14 03:56:05;;;;;;;1.55;0.80;;;;;;;;;;5016344;28;20176;-47
2021/04/14 03:58:32;;;;;;;1.20;0.85;;;;;;;;;;5016793;28;20218;-49
2021/04/14 04:01:00;;;;;;;1.05;0.70;;;;;;;;;;5016403;28;20206;-48
2021/04/14 04:03:27;;;;;;;1.13;0.77;;;;;;;;;;5016534;28;20176;-48
2021/04/14 04:05:53;;;;;;;0.77;0.77;;;;;;;;;;5011936;28;20176;-48
2021/04/14 04:08:19;;;;;;;1.17;0.60;;;;;;;;;;5016530;28;20603;-48
2021/04/14 04:10:45;;;;;;;1.75;0.70;;;;;;;;;;5015906;28;20263;-48
2021/04/14 04:13:13;;;;;;;0.82;0.80;;;;;;;;;;5015764;28;20216;-49
2021/04/14 04:15:39;;;;;;;0.90;0.80;;;;;;;;;;5016320;28;20181;-49
2021/04/14 04:18:06;;;;;;;0.93;0.80;;;;;;;;;;5016202;28;20196;-48
2021/04/14 04:20:32;;;;;;;0.75;0.73;;;;;;;;;;5015980;28;20173;-49
2021/04/14 04:22:59;;;;;;;2.10;0.65;;;;;;;;;;5014735;28;20445;-48
2021/04/14 04:25:25;;;;;;;1.75;0.77;;;;;;;;;;5016198;28;20173;-48
2021/04/14 04:27:51;;;;;;;1.05;0.70;;;;;;;;;;5016125;28;20181;-48
2021/04/14 04:30:17;;;;;;;0.93;0.60;;;;;;;;;;5015931;28;20191;-48
2021/04/14 04:32:43;;;;;;;1.05;0.98;;;;;;;;;;5010480;28;20251;-47
2021/04/14 04:35:10;;;;;;;0.80;0.70;;;;;;;;;;5016119;28;20473;-49
2021/04/14 04:37:36;;;;;;;1.35;0.90;;;;;;;;;;5015867;28;20212;-48
2021/04/14 04:40:03;;;;;;;0.43;0.43;;;;;;;;;;5015946;28;20262;-48
2021/04/14 04:42:29;;;;;;;1.20;0.90;;;;;;;;;;5001221;28;20560;-48
2021/04/14 04:44:55;;;;;;;0.77;0.70;;;;;;;;;;5009238;28;20238;-47
2021/04/14 04:47:21;;;;;;;1.40;0.90;;;;;;;;;;5014660;28;20551;-49
2021/04/14 04:49:48;;;;;;;1.15;0.70;;;;;;;;;;5015613;28;20207;-48
2021/04/14 04:52:14;;;;;;;1.25;0.50;;;;;;;;;;5030478;28;20190;-48
2021/04/14 04:54:40;;;;;;;1.10;0.80;;;;;;;;;;5017165;28;20185;-48
2021/04/14 04:57:06;;;;;;;0.60;0.60;;;;;;;;;;5015320;28;20666;-48
2021/04/14 04:59:32;;;;;;;0.68;0.68;;;;;;;;;;5015130;28;20184;-48
2021/04/14 05:01:59;;;;;;;0.90;0.80;;;;;;;;;;5026190;28;20191;-49
2021/04/14 05:04:25;;;;;;;0.75;0.50;;;;;;;;;;5015520;28;20247;-49
2021/04/14 05:06:52;;;;;;;0.80;0.70;;;;;;;;;;4998492;28;20196;-49
2021/04/14 05:09:18;;;;;;;1.60;0.80;;;;;;;;;;5014840;28;20181;-49
2021/04/14 05:11:43;;;;;;;0.95;0.57;;;;;;;;;;5011038;28;20234;-48
2021/04/14 05:14:10;;;;;;;0.70;0.60;;;;;;;;;;4997216;28;20626;-49
2021/04/14 05:16:36;;;;;;;1.00;0.80;;;;;;;;;;5003297;28;20191;-47
2021/04/14 05:19:03;;;;;;;0.65;0.63;;;;;;;;;;5014379;28;20180;-49
2021/04/14 05:21:29;;;;;;;0.68;0.57;;;;;;;;;;5014343;28;20310;-49
2021/04/14 05:23:55;;;;;;;0.60;0.60;;;;;;;;;;5009113;28;20187;-48
2021/04/14 05:26:21;;;;;;;0.60;0.60;;;;;;;;;;5016230;28;20444;-49
2021/04/14 05:28:47;;;;;;;0.90;0.80;;;;;;;;;;5022341;28;20184;-49
2021/04/14 05:31:13;;;;;;;0.95;0.60;;;;;;;;;;5003896;28;20646;-49
2021/04/14 05:33:40;;;;;;;1.00;0.63;;;;;;;;;;5003104;28;20187;-49
2021/04/14 05:36:07;;;;;;;0.60;0.60;;;;;;;;;;5014369;28;20200;-49
2021/04/14 05:38:33;;;;;;;0.80;0.60;;;;;;;;;;5013912;28;20349;-49
2021/04/14 05:40:59;;;;;;;1.17;0.90;;;;;;;;;;5013823;28;20165;-48
2021/04/14 05:43:25;;;;;;;1.38;0.80;;;;;;;;;;5013879;28;20180;-47
2021/04/14 05:45:55;;;;;;;4.82;1.10;;;;;;;;;;5013697;28;20494;-45
2021/04/14 05:48:22;;;;;;;3.67;0.90;;;;;;;;;;5013504;28;20184;-45
2021/04/14 05:50:48;;;;;;;6.63;0.80;;;;;;;;;;4995412;28;20592;-48
2021/04/14 05:53:14;;;;;;;4.30;0.80;;;;;;;;;;5009987;28;20186;-43
2021/04/14 05:55:40;;;;;;;3.85;0.95;;;;;;;;;;5014618;28;20571;-45
2021/04/14 05:58:06;;;;;;;2.75;1.00;;;;;;;;;;5013994;28;20211;-46
2021/04/14 06:00:32;;;;;;;4.00;1.20;;;;;;;;;;5012490;28;20185;-45
2021/04/14 06:02:58;;;;;;;1.55;0.80;;;;;;;;;;5013307;28;20183;-45
2021/04/14 06:05:25;;;;;;;3.42;0.80;;;;;;;;;;5014305;28;20615;-45
2021/04/14 06:07:51;;;;;;;1.92;0.80;;;;;;;;;;5013360;28;20276;-47
2021/04/14 06:10:19;;;;;;;5.07;1.00;;;;;;;;;;5012917;28;20478;-48
2021/04/14 06:12:46;;;;;;;2.75;0.77;;;;;;;;;;5013029;28;20239;-45
2021/04/14 06:15:13;;;;;;;2.67;1.15;;;;;;;;;;5014131;28;20176;-45
2021/04/14 06:17:39;;;;;;;2.40;1.02;;;;;;;;;;5013768;28;20250;-48
2021/04/14 06:20:07;;;;;;;4.63;1.10;;;;;;;;;;5011835;28;20176;-46
2021/04/14 06:22:34;;;;;;;4.13;1.10;;;;;;;;;;5013040;28;20191;-44
2021/04/14 06:25:00;;;;;;;4.13;1.02;;;;;;;;;;5013497;28;20263;-45
2021/04/14 06:27:40;;;;;;;1.85;1.00;;;;;;;;;;5013202;28;20180;-44
2021/04/14 06:30:07;;;;;;;5.47;1.10;;;;;;;;;;5006419;28;20180;-45
2021/04/14 06:32:33;;;;;;;1.48;0.73;;;;;;;;;;5012702;28;20192;-44
2021/04/14 06:34:59;;;;;;;1.48;0.65;;;;;;;;;;5013498;28;20195;-44
2021/04/14 06:37:25;;;;;;;3.05;1.05;;;;;;;;;;5021632;28;20208;-43
2021/04/14 06:43:04;;;;;;;4.82;1.15;;;;;;;;;;5013284;28;20207;-45
2021/04/14 06:45:38;;;;;;;13.98;2.25;;;;;;;;;;5008220;28;20447;-45
2021/04/14 06:48:25;;;;;;;15.90;2.28;;;;;;;;;;5017313;28;20234;-45
2021/04/14 06:51:03;;;;;;;22.27;3.60;;;;;;;;;;5016152;28;20184;-43
2021/04/14 06:53:37;;;;;;;25.13;3.85;;;;;;;;;;5018113;28;20191;-44
2021/04/14 06:56:06;;;;;;;20.20;4.38;;;;;;;;;;5017746;28;20180;-44
2021/04/14 06:58:35;;;;;;;24.60;4.82;;;;;;;;;;5016225;28;20200;-44
2021/04/14 07:01:04;;;;;;;25.40;4.30;;;;;;;;;;5016687;28;20200;-44
2021/04/14 07:03:39;;;;;;;27.30;5.05;;;;;;;;;;5017045;28;20263;-44
2021/04/14 07:06:07;;;;;;;23.67;3.78;;;;;;;;;;5015142;28;20271;-44
2021/04/14 07:08:38;;;;;;;20.63;4.53;;;;;;;;;;4994815;28;20844;-44
2021/04/14 07:11:05;;;;;;;25.42;5.03;;;;;;;;;;5016496;28;20199;-44
2021/04/14 07:13:32;;;;;;;20.33;5.00;;;;;;;;;;5017810;28;20197;-46
2021/04/14 07:16:07;;;;;;;13.15;4.18;;;;;;;;;;5011225;28;20227;-44
2021/04/14 07:18:38;;;;;;;20.88;5.13;;;;;;;;;;5017352;28;20293;-45
2021/04/14 07:21:11;;;;;;;19.02;4.93;;;;;;;;;;5016907;28;20176;-45
2021/04/14 07:23:54;;;;;;;21.70;4.70;;;;;;;;;;5016961;28;20264;-44
2021/04/14 07:26:22;;;;;;;24.88;4.80;;;;;;;;;;5018836;28;20176;-45
2021/04/14 07:29:07;;;;;;;19.38;4.55;;;;;;;;;;5023839;28;20195;-45
2021/04/14 07:31:53;;;;;;;19.08;4.57;;;;;;;;;;5015480;28;20192;-45
2021/04/14 07:34:22;;;;;;;14.82;4.03;;;;;;;;;;5016994;28;20188;-45
2021/04/14 07:36:49;;;;;;;19.70;4.18;;;;;;;;;;5006336;28;20212;-44
2021/04/14 07:39:27;;;;;;;18.90;4.00;;;;;;;;;;5007560;28;20198;-48
2021/04/14 07:41:53;;;;;;;14.13;4.43;;;;;;;;;;5016665;28;20200;-44
2021/04/14 07:44:30;;;;;;;13.57;3.47;;;;;;;;;;5016595;28;20219;-44
2021/04/14 07:46:56;;;;;;;14.80;3.97;;;;;;;;;;5015534;28;20184;-45
2021/04/14 07:49:24;;;;;;;15.55;3.88;;;;;;;;;;5017023;28;20173;-47
2021/04/14 07:51:51;;;;;;;17.70;4.07;;;;;;;;;;5010384;28;20253;-44
2021/04/14 07:54:18;;;;;;;19.83;3.70;;;;;;;;;;5016120;28;20181;-44
2021/04/14 07:56:46;;;;;;;21.95;3.58;;;;;;;;;;5016138;28;20177;-43
2021/04/14 07:59:14;;;;;;;18.83;3.92;;;;;;;;;;5005460;28;20409;-42
2021/04/14 08:01:53;;;;;;;20.35;3.70;;;;;;;;;;5006763;28;20572;-42
2021/04/14 08:04:19;;;;;;;20.52;3.83;;;;;;;;;;5015619;28;20184;-43
2021/04/14 08:06:45;;;;;;;6.38;2.63;;;;;;;;;;5016357;28;20180;-42
2021/04/14 08:09:19;;;;;;;11.52;2.83;;;;;;;;;;5016193;28;20462;-42
2021/04/14 08:11:45;;;;;;;11.13;2.65;;;;;;;;;;5008782;28;20168;-42
2021/04/14 08:14:34;;;;;;;8.60;3.25;;;;;;;;;;5015618;28;20342;-41
2021/04/14 08:17:10;;;;;;;5.93;2.40;;;;;;;;;;5014575;28;20205;-44
2021/04/14 08:19:38;;;;;;;8.93;2.78;;;;;;;;;;5016164;28;20195;-42
2021/04/14 08:22:19;;;;;;;10.60;2.45;;;;;;;;;;5014845;28;20419;-41
2021/04/14 08:24:48;;;;;;;11.25;2.30;;;;;;;;;;5018462;28;20289;-41
2021/04/14 08:27:24;;;;;;;11.83;2.87;;;;;;;;;;5028358;28;20447;-42
2021/04/14 08:30:01;;;;;;;8.13;2.25;;;;;;;;;;5028829;28;20821;-41
2021/04/14 08:32:27;;;;;;;5.88;2.35;;;;;;;;;;5015108;28;20256;-40
2021/04/14 08:37:35;;;;;;;11.73;2.80;;;;;;;;;;5227229;23;20239;-42
2021/04/14 08:40:04;;;;;;;11.15;2.63;;;;;;;;;;5025153;28;20200;-41
2021/04/14 08:42:32;;;;;;;8.35;2.35;;;;;;;;;;5017763;28;20180;-42
2021/04/14 08:45:05;;;;;;;9.95;2.17;;;;;;;;;;5015826;28;20179;-42
2021/04/14 08:47:36;;;;;;;4.97;1.85;;;;;;;;;;5016260;28;20176;-43
2021/04/14 08:50:22;;;;;;;5.03;2.08;;;;;;;;;;5016151;28;20212;-40
2021/04/14 08:52:55;;;;;;;8.50;2.35;;;;;;;;;;5018805;28;20283;-44
2021/04/14 08:55:23;;;;;;;6.60;2.17;;;;;;;;;;5028955;28;20175;-43
2021/04/14 08:57:50;;;;;;;4.78;1.90;;;;;;;;;;5035187;28;20192;-44
2021/04/14 09:00:17;;;;;;;8.82;2.72;;;;;;;;;;5034454;28;20180;-42
2021/04/14 09:02:43;;;;;;;6.32;2.17;;;;;;;;;;5034954;28;20299;-41
2021/04/14 09:05:15;;;;;;;9.52;2.38;;;;;;;;;;5033631;28;20184;-42
2021/04/14 09:07:42;;;;;;;8.35;2.20;;;;;;;;;;5015369;28;20252;-42
2021/04/14 09:10:10;;;;;;;5.50;1.92;;;;;;;;;;4999899;28;20184;-41
2021/04/14 09:12:48;;;;;;;11.32;2.33;;;;;;;;;;5034888;28;20177;-44
2021/04/14 09:15:15;;;;;;;4.57;1.55;;;;;;;;;;5027531;28;20263;-45
2021/04/14 09:17:42;;;;;;;7.40;2.08;;;;;;;;;;5015539;28;20252;-44
2021/04/14 09:20:08;;;;;;;4.78;2.03;;;;;;;;;;5023772;28;20578;-43
2021/04/14 09:22:35;;;;;;;5.38;1.50;;;;;;;;;;5044964;28;20623;-45
2021/04/14 09:25:03;;;;;;;7.13;1.45;;;;;;;;;;5037899;28;20237;-46
2021/04/14 09:27:39;;;;;;;5.22;2.10;;;;;;;;;;5027785;28;20202;-46
2021/04/14 09:30:17;;;;;;;3.45;1.55;;;;;;;;;;5034563;28;20191;-44
2021/04/14 09:32:46;;;;;;;4.82;1.80;;;;;;;;;;5032154;28;20551;-45
2021/04/14 09:35:16;;;;;;;3.53;1.42;;;;;;;;;;5029011;28;20180;-43
2021/04/14 09:37:43;;;;;;;4.22;1.38;;;;;;;;;;5030057;28;20201;-44
2021/04/14 09:40:10;;;;;;;3.47;1.60;;;;;;;;;;5022781;28;20244;-43
2021/04/14 09:42:44;;;;;;;7.22;1.75;;;;;;;;;;5027402;28;20175;-44
2021/04/14 09:45:13;;;;;;;2.97;1.52;;;;;;;;;;5030358;28;20182;-45
2021/04/14 09:47:39;;;;;;;5.75;1.90;;;;;;;;;;5032232;28;20184;-42
2021/04/14 09:50:38;;;;;;;2.83;1.52;;;;;;;;;;5015741;28;20180;-44
2021/04/14 09:53:07;;;;;;;4.38;1.55;;;;;;;;;;4961685;28;20639;-43
2021/04/14 09:55:45;;;;;;;9.20;1.38;;;;;;;;;;5024535;28;20188;-45
2021/04/14 09:58:25;;;;;;;9.38;1.83;;;;;;;;;;5030599;28;20203;-42
2021/04/14 10:00:55;;;;;;;4.95;1.67;;;;;;;;;;5015111;28;20722;-46
2021/04/14 10:03:28;;;;;;;8.80;2.13;;;;;;;;;;5019260;28;20187;-44
2021/04/14 10:05:55;;;;;;;8.50;1.55;;;;;;;;;;5019350;28;20172;-43
2021/04/14 10:08:22;;;;;;;5.10;1.40;;;;;;;;;;5025056;28;20818;-43
2021/04/14 10:10:48;;;;;;;8.65;1.73;;;;;;;;;;5027290;28;20454;-41
2021/04/14 10:13:16;;;;;;;7.47;1.45;;;;;;;;;;5014806;28;20168;-41
2021/04/14 10:15:43;;;;;;;6.07;1.63;;;;;;;;;;5015998;28;20263;-45
2021/04/14 10:18:30;;;;;;;8.60;2.05;;;;;;;;;;5014847;28;20295;-45
2021/04/14 10:21:10;;;;;;;5.70;1.45;;;;;;;;;;5025375;28;20194;-45
2021/04/14 10:23:37;;;;;;;7.72;1.75;;;;;;;;;;5020817;28;20259;-45
2021/04/14 10:26:04;;;;;;;5.75;2.10;;;;;;;;;;5035672;28;20233;-44
2021/04/14 10:28:30;;;;;;;6.00;1.90;;;;;;;;;;5028632;28;20175;-42
2021/04/14 10:31:02;;;;;;;9.48;1.60;;;;;;;;;;5030983;28;20267;-44
2021/04/14 10:33:28;;;;;;;6.97;1.50;;;;;;;;;;5022419;28;20175;-47
2021/04/14 10:35:54;;;;;;;7.30;2.17;;;;;;;;;;5025589;28;20245;-46
2021/04/14 10:38:28;;;;;;;4.97;1.33;;;;;;;;;;5034151;28;20215;-49
2021/04/14 10:40:54;;;;;;;4.72;1.67;;;;;;;;;;5030028;28;20268;-48
2021/04/14 10:43:21;;;;;;;5.93;1.60;;;;;;;;;;5023026;28;20247;-46
2021/04/14 10:45:59;;;;;;;7.50;1.70;;;;;;;;;;5025089;28;20654;-45
2021/04/14 10:48:27;;;;;;;5.60;1.65;;;;;;;;;;5018507;28;20183;-43
2021/04/14 10:51:25;;;;;;;3.45;1.40;;;;;;;;;;5018526;28;20180;-44
2021/04/14 10:53:53;;;;;;;7.97;1.77;;;;;;;;;;4968914;28;20196;-45
2021/04/14 10:56:21;;;;;;;2.78;1.40;;;;;;;;;;5029199;28;20455;-44
2021/04/14 10:58:48;;;;;;;7.57;1.85;;;;;;;;;;5025809;28;20204;-45
2021/04/14 11:01:16;;;;;;;5.20;1.52;;;;;;;;;;5017418;28;20173;-46
2021/04/14 11:03:44;;;;;;;4.97;1.42;;;;;;;;;;5018326;28;20255;-44
2021/04/14 11:06:10;;;;;;;4.82;1.40;;;;;;;;;;5018107;28;20750;-42
2021/04/14 11:08:37;;;;;;;10.63;1.95;;;;;;;;;;5017757;28;20239;-45
2021/04/14 11:11:04;;;;;;;10.88;2.22;;;;;;;;;;5028933;28;20184;-46
2021/04/14 11:13:31;;;;;;;7.28;2.08;;;;;;;;;;5019703;28;20555;-45
2021/04/14 11:15:58;;;;;;;10.82;1.98;;;;;;;;;;5030389;28;20255;-48
2021/04/14 11:18:35;;;;;;;7.70;1.90;;;;;;;;;;5021726;28;20254;-47
2021/04/14 11:23:32;;;;;;;10.38;1.80;;;;;;;;;;5017735;28;20176;-47
2021/04/14 11:26:04;;;;;;;4.65;1.50;;;;;;;;;;5035735;28;20249;-42
2021/04/14 11:28:38;;;;;;;7.28;1.52;;;;;;;;;;5043159;28;20229;-41
2021/04/14 11:31:04;;;;;;;9.70;2.15;;;;;;;;;;5035208;28;20189;-44
2021/04/14 11:33:38;;;;;;;5.18;1.70;;;;;;;;;;5035482;28;20171;-42
2021/04/14 11:36:05;;;;;;;6.28;1.80;;;;;;;;;;5032647;28;20199;-44
2021/04/14 11:38:33;;;;;;;7.47;1.85;;;;;;;;;;5022036;28;20212;-42
2021/04/14 11:41:00;;;;;;;5.60;1.50;;;;;;;;;;5031023;28;20455;-42
2021/04/14 11:43:38;;;;;;;2.65;1.60;;;;;;;;;;5025359;28;20177;-42
2021/04/14 11:46:24;;;;;;;7.70;1.70;;;;;;;;;;5016966;28;20196;-43
2021/04/14 11:49:00;;;;;;;3.38;1.73;;;;;;;;;;5027445;28;20183;-42
2021/04/14 11:51:34;;;;;;;5.75;1.48;;;;;;;;;;5049336;28;20211;-42
2021/04/14 11:54:02;;;;;;;9.32;2.00;;;;;;;;;;5030388;28;20617;-41
2021/04/14 11:56:34;;;;;;;8.95;2.17;;;;;;;;;;5023434;28;20282;-41
2021/04/14 11:59:00;;;;;;;4.32;1.30;;;;;;;;;;5028448;28;20584;-43
2021/04/14 12:01:31;;;;;;;3.85;1.50;;;;;;;;;;5022383;28;20176;-43
2021/04/14 12:04:08;;;;;;;6.28;1.40;;;;;;;;;;5020138;28;20180;-43
2021/04/14 12:06:34;;;;;;;6.00;1.10;;;;;;;;;;5024463;28;20168;-42
2021/04/14 12:09:00;;;;;;;3.08;1.48;;;;;;;;;;5031547;28;20187;-42
2021/04/14 12:11:26;;;;;;;6.30;1.50;;;;;;;;;;5029177;28;20577;-44
2021/04/14 12:13:53;;;;;;;4.25;1.45;;;;;;;;;;5025047;28;20199;-42
2021/04/14 12:16:19;;;;;;;2.72;1.20;;;;;;;;;;5035705;28;20209;-41
2021/04/14 12:18:46;;;;;;;4.78;1.33;;;;;;;;;;5036022;28;20301;-45
2021/04/14 12:21:12;;;;;;;7.10;1.50;;;;;;;;;;5035602;28;20195;-45
2021/04/14 12:23:38;;;;;;;5.07;1.33;;;;;;;;;;5035341;28;20199;-48
2021/04/14 12:26:05;;;;;;;3.58;1.40;;;;;;;;;;5024821;28;20651;-42
2021/04/14 12:28:31;;;;;;;5.70;1.30;;;;;;;;;;5035941;28;20168;-45
2021/04/14 12:30:57;;;;;;;5.20;1.20;;;;;;;;;;5035755;28;20245;-45
2021/04/14 12:33:23;;;;;;;8.40;1.35;;;;;;;;;;5035868;28;20180;-41
2021/04/14 12:35:49;;;;;;;6.70;1.52;;;;;;;;;;5028965;28;20229;-41
2021/04/14 12:38:15;;;;;;;13.23;1.88;;;;;;;;;;5029377;28;20200;-41
2021/04/14 12:40:42;;;;;;;11.57;2.75;;;;;;;;;;5022783;28;20598;-41
2021/04/14 12:43:09;;;;;;;5.68;1.58;;;;;;;;;;5026237;28;20180;-41
2021/04/14 12:45:37;;;;;;;4.88;1.27;;;;;;;;;;5025665;28;20185;-41
2021/04/14 12:48:09;;;;;;;8.68;1.92;;;;;;;;;;5016123;28;20173;-41
2021/04/14 12:50:36;;;;;;;5.32;1.80;;;;;;;;;;5027829;28;20625;-41
2021/04/14 12:53:04;;;;;;;11.30;2.17;;;;;;;;;;5019547;28;20237;-41
2021/04/14 12:55:41;;;;;;;7.07;1.60;;;;;;;;;;5027597;28;20187;-41
2021/04/14 12:58:08;;;;;;;13.15;2.00;;;;;;;;;;5043314;28;20199;-41
2021/04/14 13:00:34;;;;;;;5.28;1.48;;;;;;;;;;5042345;28;20202;-41
2021/04/14 13:03:06;;;;;;;9.38;1.75;;;;;;;;;;5041555;28;20277;-41
2021/04/14 13:05:56;;;;;;;4.05;1.23;;;;;;;;;;5039019;28;20172;-41
2021/04/14 13:08:25;;;;;;;3.97;1.35;;;;;;;;;;5040019;28;20180;-41
2021/04/14 13:10:56;;;;;;;7.85;1.00;;;;;;;;;;5027976;28;20191;-41
2021/04/14 13:13:23;;;;;;;3.33;1.00;;;;;;;;;;5015722;28;20264;-41
2021/04/14 13:15:53;;;;;;;2.47;1.15;;;;;;;;;;5031593;28;20187;-41
2021/04/14 13:18:19;;;;;;;4.28;1.10;;;;;;;;;;5030997;28;20495;-41
2021/04/14 13:20:48;;;;;;;12.32;1.05;;;;;;;;;;5034986;28;20255;-41
2021/04/14 13:23:17;;;;;;;7.43;1.08;;;;;;;;;;5035249;28;20706;-41
2021/04/14 13:25:45;;;;;;;3.60;1.10;;;;;;;;;;5022659;28;20202;-41
2021/04/14 13:28:24;;;;;;;3.30;1.00;;;;;;;;;;5034036;28;20188;-41
2021/04/14 13:31:04;;;;;;;2.72;0.90;;;;;;;;;;5021240;28;20192;-41
2021/04/14 13:33:44;;;;;;;2.97;0.95;;;;;;;;;;5020978;28;20183;-41
2021/04/14 13:36:22;;;;;;;3.53;1.35;;;;;;;;;;5017350;28;20544;-41
2021/04/14 13:38:50;;;;;;;3.40;1.02;;;;;;;;;;5030437;28;20637;-41
2021/04/14 13:41:25;;;;;;;5.45;1.00;;;;;;;;;;5022841;28;20453;-41
2021/04/14 13:43:55;;;;;;;3.72;0.75;;;;;;;;;;5031556;28;20178;-41
2021/04/14 13:46:26;;;;;;;2.45;0.90;;;;;;;;;;5036519;28;20255;-41
2021/04/14 13:48:52;;;;;;;3.20;0.90;;;;;;;;;;5022729;28;20188;-41
2021/04/14 13:51:21;;;;;;;4.63;0.88;;;;;;;;;;5017902;28;20184;-41
2021/04/14 13:53:49;;;;;;;1.35;0.90;;;;;;;;;;5016308;28;20181;-41
2021/04/14 13:56:18;;;;;;;2.05;1.30;;;;;;;;;;5025382;28;20601;-41
2021/04/14 13:58:46;;;;;;;2.25;0.82;;;;;;;;;;5020910;28;20196;-41
2021/04/14 14:01:15;;;;;;;4.72;1.00;;;;;;;;;;5030910;28;20183;-41
2021/04/14 14:03:41;;;;;;;1.98;0.80;;;;;;;;;;4997751;28;20481;-41
2021/04/14 14:06:10;;;;;;;1.60;0.50;;;;;;;;;;5014874;28;20204;-41
2021/04/14 14:08:39;;;;;;;0.98;0.68;;;;;;;;;;5016398;28;20443;-41
2021/04/14 14:11:08;;;;;;;2.38;1.00;;;;;;;;;;5022072;28;20180;-41
2021/04/14 14:13:36;;;;;;;3.78;0.93;;;;;;;;;;5033993;28;20179;-41
2021/04/14 14:16:08;;;;;;;4.50;0.90;;;;;;;;;;5034494;28;20171;-41
2021/04/14 14:18:35;;;;;;;1.73;0.98;;;;;;;;;;5031121;28;20207;-41
2021/04/14 14:21:02;;;;;;;1.08;0.60;;;;;;;;;;5014899;28;20263;-41
2021/04/14 14:23:28;;;;;;;1.60;0.73;;;;;;;;;;5017835;28;20184;-41
2021/04/14 14:25:57;;;;;;;3.08;0.80;;;;;;;;;;5019139;28;20266;-41
2021/04/14 14:28:24;;;;;;;1.63;0.80;;;;;;;;;;5014963;28;20559;-41
2021/04/14 14:30:51;;;;;;;2.08;0.80;;;;;;;;;;5024994;28;20184;-41
2021/04/14 14:33:17;;;;;;;2.67;0.95;;;;;;;;;;4998037;28;20191;-41
2021/04/14 14:35:43;;;;;;;2.53;1.05;;;;;;;;;;5028125;28;20184;-41
2021/04/14 14:38:13;;;;;;;1.60;0.85;;;;;;;;;;5033799;28;20527;-41
2021/04/14 14:40:41;;;;;;;1.40;0.70;;;;;;;;;;5019792;28;20181;-41
2021/04/14 14:43:14;;;;;;;1.27;0.80;;;;;;;;;;5014384;28;20208;-41
2021/04/14 14:45:43;;;;;;;2.38;0.70;;;;;;;;;;5015289;28;20177;-41
2021/04/14 14:48:13;;;;;;;1.25;0.75;;;;;;;;;;4997842;28;20191;-41
2021/04/14 14:50:40;;;;;;;1.23;0.50;;;;;;;;;;5016905;28;20164;-41
2021/04/14 14:53:10;;;;;;;1.13;0.70;;;;;;;;;;5025870;28;20184;-41
2021/04/14 14:55:37;;;;;;;1.02;0.65;;;;;;;;;;5021230;28;20183;-41
2021/04/14 14:58:13;;;;;;;1.05;0.68;;;;;;;;;;5032998;28;20285;-41